createdAt,value
2022-10-26T00:01:18.969Z,8.05
2022-10-26T00:03:47.724Z,8.15
2022-10-26T00:06:17.430Z,8.17
2022-10-26T00:08:46.672Z,8.19
2022-10-26T00:11:17.351Z,8.14
2022-10-26T00:13:47.668Z,7.62
2022-10-26T00:16:19.975Z,8.07
2022-10-26T00:18:50.264Z,8.26
2022-10-26T00:21:21.602Z,7.62
2022-10-26T00:23:49.875Z,8.16
2022-10-26T00:26:18.046Z,8.25
2022-10-26T00:28:47.761Z,8.26
2022-10-26T00:31:18.705Z,8.27
2022-10-26T00:33:47.265Z,8.26
2022-10-26T00:36:16.905Z,8.28
2022-10-26T00:38:50.290Z,8.24
2022-10-26T00:41:19.237Z,8.20
2022-10-26T00:43:48.890Z,8.18
2022-10-26T00:46:19.456Z,8.08
2022-10-26T00:48:50.635Z,7.99
2022-10-26T00:51:26.190Z,7.74
2022-10-26T00:53:55.895Z,7.74
2022-10-26T00:56:24.786Z,7.82
2022-10-26T00:58:54.420Z,7.53
2022-10-26T01:01:22.569Z,7.82
2022-10-26T01:03:51.449Z,7.76
2022-10-26T01:06:19.845Z,7.80
2022-10-26T01:08:48.280Z,7.82
2022-10-26T01:11:19.378Z,7.95
2022-10-26T01:13:47.890Z,7.77
2022-10-26T01:16:28.405Z,7.90
2022-10-26T01:19:07.373Z,7.75
2022-10-26T01:21:42.876Z,7.91
2022-10-26T01:24:44.877Z,7.87
2022-10-26T01:27:23.745Z,7.68
2022-10-26T01:30:18.943Z,7.84
2022-10-26T01:32:52.999Z,7.76
2022-10-26T01:35:24.137Z,7.77
2022-10-26T01:37:58.763Z,7.65
2022-10-26T01:40:31.125Z,7.53
2022-10-26T01:43:00.528Z,7.41
2022-10-26T01:45:32.407Z,7.46
2022-10-26T01:48:01.174Z,7.57
2022-10-26T01:50:29.430Z,7.55
2022-10-26T01:52:57.534Z,7.49
2022-10-26T01:55:48.683Z,7.58
2022-10-26T01:58:44.130Z,7.63
2022-10-26T02:01:24.725Z,7.18
2022-10-26T02:03:58.747Z,7.57
2022-10-26T02:06:32.959Z,7.71
2022-10-26T02:09:09.704Z,7.74
2022-10-26T02:11:41.102Z,7.77
2022-10-26T02:14:19.986Z,7.78
2022-10-26T02:16:56.445Z,7.65
2022-10-26T02:19:34.985Z,7.78
2022-10-26T02:22:07.972Z,7.79
2022-10-26T02:24:37.680Z,7.21
2022-10-26T02:27:07.743Z,7.59
2022-10-26T02:29:36.386Z,7.77
2022-10-26T02:32:07.354Z,7.78
2022-10-26T02:34:37.914Z,7.79
2022-10-26T02:37:10.324Z,7.75
2022-10-26T02:39:40.843Z,7.78
2022-10-26T02:42:10.811Z,7.77
2022-10-26T02:44:43.843Z,7.77
2022-10-26T02:47:14.764Z,7.77
2022-10-26T02:49:43.390Z,7.53
2022-10-26T02:52:17.640Z,7.73
2022-10-26T02:54:52.763Z,7.74
2022-10-26T02:57:24.100Z,7.76
2022-10-26T02:59:52.601Z,7.81
2022-10-26T03:02:22.498Z,7.82
2022-10-26T03:04:51.494Z,7.84
2022-10-26T03:07:23.639Z,7.77
2022-10-26T03:09:51.949Z,7.72
2022-10-26T03:12:21.096Z,7.70
2022-10-26T03:14:49.709Z,7.59
2022-10-26T03:17:17.810Z,7.57
2022-10-26T03:19:50.756Z,7.86
2022-10-26T03:22:18.884Z,7.85
2022-10-26T03:24:47.251Z,6.61
2022-10-26T03:27:15.426Z,7.81
2022-10-26T03:29:43.583Z,7.86
2022-10-26T03:32:11.784Z,7.81
2022-10-26T03:34:40.232Z,7.97
2022-10-26T03:37:09.983Z,8.00
2022-10-26T03:39:38.391Z,8.03
2022-10-26T03:42:08.672Z,8.05
2022-10-26T03:44:36.733Z,7.96
2022-10-26T03:47:05.375Z,8.04
2022-10-26T03:49:33.549Z,7.99
2022-10-26T03:52:02.866Z,7.78
2022-10-26T03:54:32.422Z,7.97
2022-10-26T03:57:00.558Z,8.00
2022-10-26T03:59:28.679Z,7.13
2022-10-26T04:01:57.937Z,7.94
2022-10-26T04:04:27.090Z,7.81
2022-10-26T04:06:55.209Z,8.00
2022-10-26T04:09:23.357Z,7.26
2022-10-26T04:11:52.869Z,8.03
2022-10-26T04:14:20.931Z,8.17
2022-10-26T04:16:49.023Z,8.14
2022-10-26T04:19:17.257Z,8.10
2022-10-26T04:21:45.403Z,8.07
2022-10-26T04:24:16.616Z,8.26
2022-10-26T04:26:45.283Z,8.30
2022-10-26T04:29:15.110Z,8.33
2022-10-26T04:34:15.514Z,8.33
2022-10-26T04:36:43.755Z,8.31
2022-10-26T04:39:14.636Z,8.32
2022-10-26T04:41:42.803Z,8.32
2022-10-26T04:44:13.955Z,8.06
2022-10-26T04:46:43.702Z,8.34
2022-10-26T04:49:11.963Z,8.19
2022-10-26T04:51:40.194Z,7.77
2022-10-26T04:54:08.842Z,8.36
2022-10-26T04:56:37.314Z,8.07
2022-10-26T04:59:05.831Z,8.27
2022-10-26T05:01:35.268Z,8.43
2022-10-26T05:04:05.788Z,8.33
2022-10-26T05:06:34.316Z,8.21
2022-10-26T05:09:03.788Z,8.40
2022-10-26T05:11:32.452Z,8.51
2022-10-26T05:14:00.841Z,8.54
2022-10-26T05:16:31.447Z,8.58
2022-10-26T05:18:59.586Z,8.58
2022-10-26T05:21:29.189Z,8.68
2022-10-26T05:23:57.393Z,8.72
2022-10-26T05:26:26.354Z,8.77
2022-10-26T05:28:54.987Z,8.70
2022-10-26T05:31:23.370Z,8.85
2022-10-26T05:33:51.634Z,8.84
2022-10-26T05:36:20.296Z,8.85
2022-10-26T05:38:50.159Z,9.00
2022-10-26T05:41:18.286Z,8.75
2022-10-26T05:43:48.533Z,9.06
2022-10-26T05:46:16.706Z,9.04
2022-10-26T05:48:45.265Z,9.05
2022-10-26T05:51:14.417Z,9.05
2022-10-26T05:53:46.023Z,9.07
2022-10-26T05:56:20.877Z,8.94
2022-10-26T05:58:50.755Z,9.07
2022-10-26T06:01:27.057Z,9.05
2022-10-26T06:04:05.163Z,8.97
2022-10-26T06:06:41.253Z,8.98
2022-10-26T06:09:11.208Z,9.07
2022-10-26T06:11:43.487Z,9.13
2022-10-26T06:14:14.774Z,8.93
2022-10-26T06:16:58.105Z,9.11
2022-10-26T06:19:39.301Z,8.65
2022-10-26T06:22:17.388Z,9.30
2022-10-26T06:24:50.162Z,9.37
2022-10-26T06:27:26.483Z,9.20
2022-10-26T06:29:59.330Z,9.33
2022-10-26T06:32:27.763Z,9.18
2022-10-26T06:35:07.118Z,9.46
2022-10-26T06:37:40.105Z,9.63
2022-10-26T06:40:10.507Z,9.65
2022-10-26T06:42:40.708Z,9.78
2022-10-26T06:45:15.813Z,9.83
2022-10-26T06:47:48.096Z,9.47
2022-10-26T06:50:27.475Z,9.71
2022-10-26T06:53:02.906Z,9.92
2022-10-26T06:55:42.728Z,9.91
2022-10-26T06:58:15.252Z,9.64
2022-10-26T07:00:44.762Z,10.06
2022-10-26T07:03:13.710Z,9.80
2022-10-26T07:05:43.420Z,10.10
2022-10-26T07:08:15.699Z,10.23
2022-10-26T07:10:43.894Z,9.73
2022-10-26T07:13:13.842Z,10.39
2022-10-26T07:15:43.000Z,10.46
2022-10-26T07:18:11.044Z,9.99
2022-10-26T07:20:41.298Z,10.20
2022-10-26T07:23:11.552Z,10.57
2022-10-26T07:25:40.632Z,10.68
2022-10-26T07:28:10.521Z,10.59
2022-10-26T07:30:41.217Z,10.58
2022-10-26T07:33:10.717Z,10.77
2022-10-26T07:35:39.045Z,10.74
2022-10-26T07:38:07.586Z,10.77
2022-10-26T07:40:35.998Z,10.97
2022-10-26T07:43:04.200Z,11.07
2022-10-26T07:45:32.528Z,11.16
2022-10-26T07:48:02.023Z,10.98
2022-10-26T07:50:30.338Z,11.28
2022-10-26T07:52:59.992Z,11.34
2022-10-26T07:55:28.340Z,11.26
2022-10-26T07:57:56.747Z,11.33
2022-10-26T08:00:25.844Z,11.57
2022-10-26T08:02:54.766Z,11.47
2022-10-26T08:05:24.954Z,11.60
2022-10-26T08:07:53.377Z,11.66
2022-10-26T08:10:21.485Z,11.55
2022-10-26T08:12:49.786Z,10.78
2022-10-26T08:15:18.044Z,11.76
2022-10-26T08:17:46.322Z,11.90
2022-10-26T08:20:14.655Z,12.01
2022-10-26T08:22:44.235Z,12.12
2022-10-26T08:25:12.733Z,12.25
2022-10-26T08:27:41.814Z,12.05
2022-10-26T08:30:10.547Z,12.50
2022-10-26T08:32:38.792Z,12.42
2022-10-26T08:35:08.498Z,12.69
2022-10-26T08:37:36.918Z,12.11
2022-10-26T08:40:07.240Z,12.68
2022-10-26T08:42:41.563Z,12.70
2022-10-26T08:45:15.683Z,12.68
2022-10-26T08:47:46.842Z,12.81
2022-10-26T08:50:20.919Z,12.82
2022-10-26T08:52:52.438Z,12.99
2022-10-26T08:55:26.940Z,13.20
2022-10-26T08:57:55.208Z,13.37
2022-10-26T09:00:25.004Z,13.61
2022-10-26T09:02:56.305Z,13.27
2022-10-26T09:05:32.337Z,13.86
2022-10-26T09:08:09.805Z,13.89
2022-10-26T09:10:56.009Z,13.84
2022-10-26T09:13:30.005Z,13.83
2022-10-26T09:16:03.722Z,13.73
2022-10-26T09:18:45.087Z,13.69
2022-10-26T09:21:22.300Z,13.72
2022-10-26T09:24:02.000Z,13.62
2022-10-26T09:26:40.212Z,14.03
2022-10-26T09:29:12.721Z,14.11
2022-10-26T09:31:43.554Z,12.68
2022-10-26T09:34:20.636Z,14.44
2022-10-26T09:36:48.951Z,14.48
2022-10-26T09:39:20.719Z,14.60
2022-10-26T09:41:55.875Z,14.53
2022-10-26T09:44:27.355Z,14.31
2022-10-26T09:46:59.559Z,14.09
2022-10-26T09:49:32.191Z,14.44
2022-10-26T09:52:00.396Z,14.46
2022-10-26T09:54:28.722Z,14.13
2022-10-26T09:57:01.857Z,14.68
2022-10-26T09:59:33.616Z,14.84
2022-10-26T10:02:02.614Z,15.07
2022-10-26T10:04:33.828Z,15.45
2022-10-26T10:07:14.619Z,15.77
2022-10-26T10:09:42.708Z,15.93
2022-10-26T10:12:20.119Z,15.93
2022-10-26T10:14:57.795Z,16.02
2022-10-26T10:17:26.260Z,16.63
2022-10-26T10:19:54.738Z,16.65
2022-10-26T10:22:26.710Z,16.92
2022-10-26T10:24:56.165Z,17.44
2022-10-26T10:27:26.253Z,17.58
2022-10-26T10:29:59.891Z,18.08
2022-10-26T10:32:35.816Z,18.48
2022-10-26T10:35:24.723Z,18.32
2022-10-26T10:37:53.452Z,18.59
2022-10-26T10:40:23.384Z,18.95
2022-10-26T10:42:54.349Z,20.91
2022-10-26T10:45:24.315Z,22.75
2022-10-26T10:48:00.512Z,23.12
2022-10-26T10:50:30.216Z,22.16
2022-10-26T10:53:14.207Z,23.01
2022-10-26T10:55:44.409Z,22.04
2022-10-26T10:58:19.356Z,21.83
2022-10-26T11:00:50.383Z,22.43
2022-10-26T11:03:35.140Z,21.84
2022-10-26T11:06:12.721Z,20.62
2022-10-26T11:08:45.682Z,19.98
2022-10-26T11:11:16.191Z,19.95
2022-10-26T11:13:51.986Z,19.35
2022-10-26T11:16:23.991Z,19.06
2022-10-26T11:18:54.254Z,19.42
2022-10-26T11:21:28.355Z,18.87
2022-10-26T11:24:10.932Z,18.19
2022-10-26T11:26:46.131Z,18.59
2022-10-26T11:29:23.363Z,18.14
2022-10-26T11:31:56.097Z,17.76
2022-10-26T11:34:29.000Z,17.82
2022-10-26T11:37:00.925Z,17.55
2022-10-26T11:39:37.300Z,17.19
2022-10-26T11:42:11.769Z,16.98
2022-10-26T11:44:49.167Z,17.01
2022-10-26T11:47:35.152Z,16.62
2022-10-26T11:50:17.355Z,16.78
2022-10-26T11:52:49.622Z,16.47
2022-10-26T11:55:19.726Z,16.39
2022-10-26T11:57:49.487Z,16.17
2022-10-26T12:00:22.359Z,15.93
2022-10-26T12:02:54.144Z,16.04
2022-10-26T12:05:25.148Z,15.64
2022-10-26T12:07:57.425Z,15.68
2022-10-26T12:10:28.770Z,15.44
2022-10-26T12:13:03.264Z,14.91
2022-10-26T12:16:01.725Z,15.35
2022-10-26T12:18:50.219Z,15.20
2022-10-26T12:21:16.455Z,15.25
2022-10-26T12:23:56.790Z,15.18
2022-10-26T12:26:52.172Z,15.31
2022-10-26T12:29:32.286Z,15.50
2022-10-26T12:32:02.459Z,14.60
2022-10-26T12:35:01.798Z,15.76
2022-10-26T12:37:37.046Z,15.80
2022-10-26T12:40:42.572Z,16.08
2022-10-26T12:43:37.267Z,17.37
2022-10-26T12:46:42.159Z,18.44
2022-10-26T12:50:00.958Z,18.75
2022-10-26T12:52:50.559Z,18.13
2022-10-26T12:55:57.963Z,17.83
2022-10-26T12:58:43.079Z,17.65
2022-10-26T13:02:03.567Z,17.58
2022-10-26T13:04:53.631Z,17.40
2022-10-26T13:07:24.210Z,16.69
2022-10-26T13:10:00.845Z,16.90
2022-10-26T13:12:30.770Z,16.56
2022-10-26T13:15:05.672Z,16.43
2022-10-26T13:20:04.611Z,16.50
2022-10-26T13:22:33.425Z,16.38
2022-10-26T13:25:03.775Z,16.37
2022-10-26T13:27:46.546Z,16.16
2022-10-26T13:30:22.103Z,16.17
2022-10-26T13:32:52.834Z,15.29
2022-10-26T13:35:21.732Z,16.00
2022-10-26T13:37:52.314Z,15.85
2022-10-26T13:40:23.622Z,15.30
2022-10-26T13:42:54.482Z,15.70
2022-10-26T13:45:26.443Z,15.63
2022-10-26T13:47:59.127Z,15.57
2022-10-26T13:50:32.040Z,15.62
2022-10-26T13:53:02.372Z,15.36
2022-10-26T13:55:34.022Z,15.57
2022-10-26T13:58:12.026Z,15.55
2022-10-26T14:00:40.193Z,15.41
2022-10-26T14:03:16.146Z,15.43
2022-10-26T14:05:48.212Z,15.46
2022-10-26T14:08:18.392Z,15.39
2022-10-26T14:10:49.943Z,15.26
2022-10-26T14:13:19.699Z,15.14
2022-10-26T14:15:48.181Z,15.32
2022-10-26T14:18:19.019Z,14.76
2022-10-26T14:20:50.158Z,14.96
2022-10-26T14:23:28.961Z,15.06
2022-10-26T14:25:59.439Z,14.93
2022-10-26T14:28:30.736Z,15.15
2022-10-26T14:31:16.518Z,15.07
2022-10-26T14:33:47.680Z,15.02
2022-10-26T14:36:16.219Z,15.00
2022-10-26T14:38:45.962Z,13.82
2022-10-26T14:41:18.584Z,14.92
2022-10-26T14:43:47.367Z,14.46
2022-10-26T14:46:17.071Z,14.89
2022-10-26T14:48:53.476Z,14.81
2022-10-26T14:51:22.786Z,14.67
2022-10-26T14:53:53.035Z,14.82
2022-10-26T14:56:29.963Z,14.82
2022-10-26T14:58:58.813Z,14.23
2022-10-26T15:01:35.714Z,14.64
2022-10-26T15:04:07.550Z,14.26
2022-10-26T15:06:41.282Z,14.65
2022-10-26T15:09:31.213Z,14.50
2022-10-26T15:12:02.976Z,14.66
2022-10-26T15:14:31.350Z,14.69
2022-10-26T15:17:00.125Z,14.68
2022-10-26T15:19:28.978Z,14.65
2022-10-26T15:21:57.111Z,14.52
2022-10-26T15:24:33.280Z,14.56
2022-10-26T15:27:12.522Z,14.38
2022-10-26T15:29:43.111Z,14.13
2022-10-26T15:32:25.853Z,14.46
2022-10-26T15:35:23.891Z,14.30
2022-10-26T15:37:53.495Z,13.88
2022-10-26T15:40:21.950Z,14.35
2022-10-26T15:42:53.232Z,14.32
2022-10-26T15:45:23.338Z,14.25
2022-10-26T15:47:53.531Z,14.14
2022-10-26T15:50:23.034Z,14.11
2022-10-26T15:52:51.676Z,14.11
2022-10-26T15:55:20.087Z,14.09
2022-10-26T15:57:48.744Z,13.99
2022-10-26T16:00:19.628Z,13.71
2022-10-26T16:02:48.337Z,14.01
2022-10-26T16:05:18.401Z,13.97
2022-10-26T16:07:48.980Z,13.95
2022-10-26T16:10:20.226Z,13.94
2022-10-26T16:12:50.005Z,13.39
2022-10-26T16:15:23.767Z,13.87
2022-10-26T16:17:52.873Z,13.68
2022-10-26T16:20:24.187Z,13.73
2022-10-26T16:22:55.518Z,13.67
2022-10-26T16:25:26.685Z,13.60
2022-10-26T16:27:56.260Z,13.17
2022-10-26T16:30:30.167Z,13.61
2022-10-26T16:32:58.550Z,13.59
2022-10-26T16:35:26.609Z,13.58
2022-10-26T16:37:54.752Z,13.55
2022-10-26T16:40:23.169Z,13.06
2022-10-26T16:42:51.454Z,13.19
2022-10-26T16:45:19.867Z,13.34
2022-10-26T16:47:49.827Z,13.33
2022-10-26T16:50:21.197Z,13.41
2022-10-26T16:52:49.603Z,13.26
2022-10-26T16:55:18.779Z,13.25
2022-10-26T16:57:47.453Z,13.30
2022-10-26T17:00:16.829Z,13.27
2022-10-26T17:02:45.479Z,13.11
2022-10-26T17:05:15.878Z,13.05
2022-10-26T17:07:44.067Z,13.03
2022-10-26T17:10:12.748Z,12.92
2022-10-26T17:12:41.068Z,12.82
2022-10-26T17:15:10.066Z,13.04
2022-10-26T17:17:38.869Z,13.02
2022-10-26T17:20:08.504Z,13.01
2022-10-26T17:22:38.363Z,12.81
2022-10-26T17:25:07.284Z,12.84
2022-10-26T17:27:35.361Z,12.97
2022-10-26T17:30:03.596Z,12.57
2022-10-26T17:32:31.954Z,12.93
2022-10-26T17:35:01.865Z,12.92
2022-10-26T17:40:04.719Z,12.89
2022-10-26T17:42:32.776Z,12.95
2022-10-26T17:45:00.962Z,12.94
2022-10-26T17:47:29.201Z,12.69
2022-10-26T17:49:57.459Z,12.93
2022-10-26T17:52:25.930Z,12.89
2022-10-26T17:54:54.140Z,12.84
2022-10-26T17:57:23.704Z,12.85
2022-10-26T17:59:51.886Z,12.75
2022-10-26T18:02:20.123Z,12.81
2022-10-26T18:04:48.394Z,12.86
2022-10-26T18:07:16.492Z,12.29
2022-10-26T18:09:44.604Z,12.76
2022-10-26T18:12:12.984Z,12.83
2022-10-26T18:14:42.646Z,12.81
2022-10-26T18:17:10.753Z,12.76
2022-10-26T18:19:38.926Z,12.56
2022-10-26T18:22:07.168Z,12.58
2022-10-26T18:24:35.398Z,12.35
2022-10-26T18:27:03.803Z,12.50
2022-10-26T18:29:34.971Z,12.85
2022-10-26T18:32:07.123Z,12.79
2022-10-26T18:34:35.170Z,12.36
2022-10-26T18:37:03.742Z,11.99
2022-10-26T18:39:32.477Z,12.49
2022-10-26T18:42:00.628Z,12.23
2022-10-26T18:44:28.809Z,12.74
2022-10-26T18:46:57.205Z,12.69
2022-10-26T18:49:26.789Z,12.50
2022-10-26T18:51:55.191Z,12.71
2022-10-26T18:54:24.037Z,12.79
2022-10-26T18:56:53.537Z,11.99
2022-10-26T18:59:21.693Z,12.75
2022-10-26T19:01:51.951Z,12.54
2022-10-26T19:04:20.410Z,12.57
2022-10-26T19:06:50.942Z,12.69
2022-10-26T19:09:19.936Z,12.25
2022-10-26T19:11:48.122Z,12.68
2022-10-26T19:14:16.310Z,12.62
2022-10-26T19:16:46.314Z,12.57
2022-10-26T19:19:16.243Z,12.39
2022-10-26T19:21:46.463Z,12.61
2022-10-26T19:24:17.917Z,12.47
2022-10-26T19:26:46.458Z,12.18
2022-10-26T19:29:16.142Z,11.83
2022-10-26T19:31:45.501Z,12.16
2022-10-26T19:34:14.767Z,12.01
2022-10-26T19:36:45.101Z,12.29
2022-10-26T19:39:15.656Z,12.45
2022-10-26T19:41:44.487Z,12.45
2022-10-26T19:44:14.568Z,12.39
2022-10-26T19:46:44.269Z,12.39
2022-10-26T19:49:13.681Z,12.31
2022-10-26T19:51:42.028Z,12.25
2022-10-26T19:54:10.375Z,12.09
2022-10-26T19:56:42.714Z,12.31
2022-10-26T19:59:12.554Z,11.40
2022-10-26T20:01:42.329Z,12.40
2022-10-26T20:04:11.353Z,12.39
2022-10-26T20:06:39.836Z,12.24
2022-10-26T20:09:08.150Z,12.31
2022-10-26T20:11:38.145Z,12.42
2022-10-26T20:14:08.533Z,12.25
2022-10-26T20:16:36.991Z,12.42
2022-10-26T20:19:05.202Z,12.21
2022-10-26T20:21:33.674Z,12.35
2022-10-26T20:24:02.505Z,11.93
2022-10-26T20:26:33.166Z,12.44
2022-10-26T20:29:02.771Z,12.33
2022-10-26T20:31:32.521Z,12.38
2022-10-26T20:34:00.760Z,12.37
2022-10-26T20:36:29.149Z,12.39
2022-10-26T20:38:58.137Z,12.28
2022-10-26T20:41:29.102Z,12.28
2022-10-26T20:43:58.143Z,12.23
2022-10-26T20:46:27.919Z,12.17
2022-10-26T20:48:58.071Z,11.75
2022-10-26T20:51:39.906Z,12.07
2022-10-26T20:54:16.089Z,11.40
2022-10-26T20:56:44.733Z,11.80
2022-10-26T20:59:22.282Z,11.83
2022-10-26T21:01:50.658Z,11.71
2022-10-26T21:04:20.250Z,11.83
2022-10-26T21:06:48.506Z,11.63
2022-10-26T21:09:16.589Z,11.15
2022-10-26T21:11:45.542Z,11.30
2022-10-26T21:14:13.781Z,11.47
2022-10-26T21:16:41.885Z,11.38
2022-10-26T21:19:12.849Z,11.55
2022-10-26T21:21:42.384Z,11.52
2022-10-26T21:24:10.872Z,10.96
2022-10-26T21:26:39.119Z,11.45
2022-10-26T21:29:07.222Z,11.36
2022-10-26T21:31:35.320Z,11.36
2022-10-26T21:34:03.414Z,11.14
2022-10-26T21:36:31.704Z,11.23
2022-10-26T21:39:01.344Z,11.22
2022-10-26T21:41:30.103Z,10.57
2022-10-26T21:44:08.623Z,11.03
2022-10-26T21:46:38.522Z,11.08
2022-10-26T21:49:06.759Z,10.77
2022-10-26T21:51:36.184Z,11.03
2022-10-26T21:54:06.046Z,10.86
2022-10-26T21:56:37.135Z,11.04
2022-10-26T21:59:05.890Z,10.97
2022-10-26T22:01:34.172Z,10.88
2022-10-26T22:04:02.348Z,10.94
2022-10-26T22:06:30.486Z,10.72
2022-10-26T22:08:58.645Z,10.69
2022-10-26T22:11:28.157Z,10.69
2022-10-26T22:13:56.513Z,10.77
2022-10-26T22:16:26.011Z,10.68
2022-10-26T22:18:55.647Z,10.75
2022-10-26T22:21:25.614Z,10.75
2022-10-26T22:23:54.044Z,10.67
2022-10-26T22:26:23.159Z,10.69
2022-10-26T22:28:55.885Z,10.56
2022-10-26T22:31:26.217Z,10.65
2022-10-26T22:33:54.947Z,10.63
2022-10-26T22:36:23.184Z,10.67
2022-10-26T22:38:51.395Z,10.61
2022-10-26T22:41:20.397Z,10.64
2022-10-26T22:43:48.617Z,10.16
2022-10-26T22:46:21.121Z,10.44
2022-10-26T22:48:54.596Z,10.33
2022-10-26T22:51:23.815Z,10.61
2022-10-26T22:53:53.968Z,10.62
2022-10-26T22:56:23.355Z,10.62
2022-10-26T22:58:52.378Z,10.64
2022-10-26T23:01:24.102Z,9.96
2022-10-26T23:03:53.820Z,10.57
2022-10-26T23:06:22.241Z,10.33
2022-10-26T23:08:50.443Z,10.52
2022-10-26T23:11:20.251Z,10.52
2022-10-26T23:13:49.192Z,10.39
2022-10-26T23:16:19.127Z,10.45
2022-10-26T23:18:49.499Z,10.52
2022-10-26T23:21:19.033Z,10.38
2022-10-26T23:23:48.532Z,9.69
2022-10-26T23:26:19.171Z,10.41
2022-10-26T23:28:47.357Z,10.35
2022-10-26T23:31:18.486Z,10.39
2022-10-26T23:33:48.192Z,9.94
2022-10-26T23:36:16.244Z,10.34
2022-10-26T23:38:44.639Z,9.90
2022-10-26T23:41:13.308Z,10.36
2022-10-26T23:43:42.192Z,10.28
2022-10-26T23:46:10.315Z,10.33
2022-10-26T23:48:38.681Z,9.96
2022-10-26T23:51:08.383Z,10.25
2022-10-26T23:53:36.679Z,10.05
2022-10-26T23:56:05.012Z,10.22
2022-10-26T23:58:33.339Z,10.11
